Time;durP1;ratioP1;P1;durP2;ratioP2;P2;SDS_P1;SDS_P2;PMS_P1;PMS_P2;Temp;Humidity;BMP_temperature;BMP_pressure;BME280_temperature;BME280_humidity;BME280_pressure;Samples;Min_cycle;Max_cycle;Signal;HPM_P1;HPM_P2
2022/01/18 00:00:09;;;;;;;11.13;7.60;;;3.20;99.90;;;;;;5029708;28;20092;-81
2022/01/18 00:02:38;;;;;;;9.50;7.13;;;3.20;99.90;;;;;;5032201;28;20462;-81
2022/01/18 00:05:04;;;;;;;11.77;7.00;;;3.20;99.90;;;;;;5033454;28;20017;-81
2022/01/18 00:07:30;;;;;;;11.17;7.77;;;3.10;99.90;;;;;;5033644;28;20414;-81
2022/01/18 00:09:56;;;;;;;11.40;7.73;;;3.10;99.90;;;;;;5033690;28;20021;-82
2022/01/18 00:15:15;;;;;;;10.10;6.97;;;3.10;99.90;;;;;;5033410;28;20068;-81
2022/01/18 00:17:51;;;;;;;10.77;7.57;;;3.10;99.90;;;;;;5033297;28;20079;-81
2022/01/18 00:20:21;;;;;;;11.07;7.47;;;3.10;99.90;;;;;;5033515;28;20112;-82
2022/01/18 00:22:47;;;;;;;11.03;7.67;;;3.20;99.90;;;;;;5033272;28;20025;-81
2022/01/18 00:25:12;;;;;;;10.17;7.77;;;3.20;99.90;;;;;;5032377;28;20026;-82
2022/01/18 00:27:38;;;;;;;12.93;7.93;;;3.10;99.90;;;;;;5033874;28;20420;-82
2022/01/18 00:30:26;;;;;;;11.13;7.63;;;3.00;99.90;;;;;;5034056;28;20014;-82
2022/01/18 00:33:17;;;;;;;11.23;7.83;;;2.90;99.90;;;;;;5033760;28;20075;-82
2022/01/18 00:35:44;;;;;;;13.40;8.43;;;2.90;99.90;;;;;;5032209;28;20137;-83
2022/01/18 00:38:32;;;;;;;11.90;8.53;;;2.90;99.90;;;;;;5034002;28;20389;-83
2022/01/18 00:40:58;;;;;;;11.13;8.30;;;2.90;99.90;;;;;;5034420;28;20027;-83
2022/01/18 00:43:24;;;;;;;10.80;7.53;;;2.90;99.90;;;;;;5033936;28;20076;-83
2022/01/18 00:45:50;;;;;;;12.70;8.20;;;2.90;99.90;;;;;;5032524;28;20025;-83
2022/01/18 00:48:17;;;;;;;14.00;8.90;;;2.90;99.90;;;;;;5033905;28;20759;-83
2022/01/18 00:50:44;;;;;;;11.93;8.37;;;2.90;99.90;;;;;;5033750;28;20017;-83
2022/01/18 00:53:13;;;;;;;12.77;8.77;;;2.90;99.90;;;;;;5033636;28;20017;-83
2022/01/18 00:55:50;;;;;;;11.80;8.27;;;3.00;99.90;;;;;;5034063;28;20427;-83
2022/01/18 00:58:15;;;;;;;14.60;10.20;;;3.00;99.90;;;;;;5033586;28;20429;-83
2022/01/18 01:00:41;;;;;;;12.63;8.90;;;3.00;99.90;;;;;;5033635;28;20108;-83
2022/01/18 01:03:09;;;;;;;10.93;8.13;;;3.00;99.90;;;;;;5033852;28;20420;-83
2022/01/18 01:05:35;;;;;;;13.87;9.13;;;3.00;99.90;;;;;;5033525;28;20075;-83
2022/01/18 01:08:01;;;;;;;13.67;9.47;;;3.00;99.90;;;;;;5033856;28;20033;-83
2022/01/18 01:10:28;;;;;;;12.17;8.80;;;3.10;99.90;;;;;;5033548;28;20138;-83
2022/01/18 01:12:54;;;;;;;13.13;8.77;;;3.00;99.90;;;;;;5032733;28;20715;-83
2022/01/18 01:15:22;;;;;;;12.90;8.80;;;3.00;99.90;;;;;;5033069;28;20025;-83
2022/01/18 01:18:08;;;;;;;14.23;9.43;;;2.90;99.90;;;;;;5033646;28;20041;-83
2022/01/18 01:32:20;;;;;;;15.43;9.97;;;2.80;99.90;;;;;;5033315;28;20091;-83
2022/01/18 01:35:05;;;;;;;12.63;9.10;;;2.80;99.90;;;;;;5032628;28;20155;-83
2022/01/18 01:42:54;;;;;;;12.40;9.20;;;2.80;99.90;;;;;;5033243;28;20087;-83
2022/01/18 01:45:20;;;;;;;13.40;9.73;;;2.80;99.90;;;;;;5033383;28;20018;-83
2022/01/18 01:47:51;;;;;;;14.10;10.00;;;2.80;99.90;;;;;;5032879;28;20032;-83
2022/01/18 01:50:19;;;;;;;12.90;9.03;;;2.70;99.90;;;;;;5032828;28;20100;-82
2022/01/18 01:52:47;;;;;;;12.97;9.30;;;2.70;99.90;;;;;;5032602;28;20112;-83
2022/01/18 01:55:14;;;;;;;14.73;11.00;;;2.70;99.90;;;;;;5032716;28;20048;-83
2022/01/18 01:57:39;;;;;;;15.50;9.67;;;2.70;99.90;;;;;;5032567;28;20120;-84
2022/01/18 02:00:14;;;;;;;13.00;9.73;;;2.80;99.90;;;;;;5031790;28;20764;-83
2022/01/18 02:02:40;;;;;;;13.55;9.32;;;2.70;99.90;;;;;;5032247;28;20029;-84
2022/01/18 02:05:07;;;;;;;15.30;9.93;;;2.70;99.90;;;;;;5032311;28;20072;-84
2022/01/18 02:07:32;;;;;;;14.63;10.10;;;2.70;99.90;;;;;;5030440;28;20026;-84
2022/01/18 02:09:58;;;;;;;15.20;10.27;;;2.70;99.90;;;;;;5032130;28;20040;-83
2022/01/18 02:12:24;;;;;;;14.03;10.40;;;2.60;99.90;;;;;;5031944;28;20041;-83
2022/01/18 02:14:56;;;;;;;17.57;11.17;;;2.60;99.90;;;;;;5031770;28;20036;-83
2022/01/18 02:22:52;;;;;;;16.03;10.83;;;2.60;99.90;;;;;;5032504;28;20176;-84
2022/01/18 02:25:17;;;;;;;14.93;10.73;;;2.60;99.90;;;;;;5031588;28;20064;-82
2022/01/18 02:27:44;;;;;;;15.83;11.03;;;2.50;99.90;;;;;;5031798;28;20036;-83
2022/01/18 02:30:10;;;;;;;13.73;10.33;;;2.60;99.90;;;;;;5031938;28;20031;-83
2022/01/18 02:32:36;;;;;;;16.37;11.17;;;2.60;99.90;;;;;;5031654;28;20124;-83
2022/01/18 02:35:02;;;;;;;16.97;11.40;;;2.60;99.90;;;;;;5030384;28;20046;-83
2022/01/18 02:37:27;;;;;;;18.33;11.90;;;2.60;99.90;;;;;;5031684;28;20021;-83
2022/01/18 02:39:53;;;;;;;15.73;11.50;;;2.60;99.90;;;;;;5031831;28;20039;-83
2022/01/18 02:42:28;;;;;;;14.33;10.53;;;2.60;99.90;;;;;;5031519;28;20370;-83
2022/01/18 02:44:54;;;;;;;16.52;11.30;;;2.60;99.90;;;;;;5031655;28;20105;-83
2022/01/18 02:47:21;;;;;;;14.93;11.37;;;2.60;99.90;;;;;;5029573;28;20482;-83
2022/01/18 02:49:47;;;;;;;18.13;13.03;;;2.50;99.90;;;;;;5011213;28;20022;-83
2022/01/18 02:52:14;;;;;;;18.77;12.93;;;2.50;99.90;;;;;;5011653;28;20026;-83
2022/01/18 02:54:40;;;;;;;16.77;11.83;;;2.50;99.90;;;;;;5011672;28;20029;-83
2022/01/18 02:57:11;;;;;;;15.60;11.47;;;2.60;99.90;;;;;;5026746;28;20525;-83
2022/01/18 02:59:47;;;;;;;16.53;11.87;;;2.60;99.90;;;;;;5011600;28;20033;-83
2022/01/18 03:05:06;;;;;;;15.70;11.23;;;2.70;99.90;;;;;;5011692;28;20037;-83
2022/01/18 03:07:32;;;;;;;16.50;11.83;;;2.70;99.90;;;;;;5011336;28;20096;-83
2022/01/18 03:09:57;;;;;;;15.70;11.43;;;2.70;99.90;;;;;;5011444;28;20026;-83
2022/01/18 03:12:23;;;;;;;15.90;11.87;;;2.70;99.90;;;;;;5011362;28;20105;-83
2022/01/18 03:14:49;;;;;;;16.53;12.30;;;2.70;99.90;;;;;;5011157;28;20030;-82
2022/01/18 03:17:14;;;;;;;16.97;11.23;;;2.70;99.90;;;;;;5011011;28;20117;-83
2022/01/18 03:19:40;;;;;;;15.73;12.00;;;2.70;99.90;;;;;;5011183;28;20033;-83
2022/01/18 03:22:06;;;;;;;16.03;12.33;;;2.80;99.90;;;;;;5010971;28;20038;-83
2022/01/18 03:24:46;;;;;;;19.90;12.37;;;2.80;99.90;;;;;;5011321;28;20109;-82
2022/01/18 03:29:56;;;;;;;16.35;11.80;;;2.80;99.90;;;;;;5011321;28;20071;-83
2022/01/18 03:32:22;;;;;;;18.67;12.90;;;2.70;99.90;;;;;;5011226;28;20528;-83
2022/01/18 03:34:48;;;;;;;19.37;12.93;;;2.70;99.90;;;;;;5010942;28;20100;-83
2022/01/18 03:37:13;;;;;;;19.47;13.47;;;2.70;99.90;;;;;;5010074;28;20017;-83
2022/01/18 03:39:39;;;;;;;18.57;12.50;;;2.70;99.90;;;;;;5010915;28;20057;-83
2022/01/18 03:42:33;;;;;;;17.77;12.53;;;2.70;99.90;;;;;;5010786;28;20360;-83
2022/01/18 03:44:50;;;;;;;16.63;12.03;;;2.70;99.90;;;;;;5010805;28;20113;-83
2022/01/18 03:47:19;;;;;;;17.50;13.53;;;2.70;99.90;;;;;;5011047;28;20112;-83
2022/01/18 03:49:44;;;;;;;17.90;11.93;;;2.80;99.90;;;;;;5010977;28;20100;-83
2022/01/18 03:52:10;;;;;;;17.97;12.53;;;2.70;99.90;;;;;;5010854;28;20062;-83
2022/01/18 03:54:42;;;;;;;16.60;12.47;;;2.80;99.90;;;;;;5011208;28;20096;-83
2022/01/18 03:57:08;;;;;;;19.40;12.57;;;2.80;99.90;;;;;;5011016;28;20064;-83
2022/01/18 03:59:34;;;;;;;15.90;11.83;;;2.80;99.90;;;;;;5010754;28;20022;-83
2022/01/18 04:01:59;;;;;;;16.80;12.33;;;2.90;99.90;;;;;;5010628;28;20438;-83
2022/01/18 04:04:25;;;;;;;17.77;12.50;;;2.90;99.90;;;;;;5010861;28;20715;-83
2022/01/18 04:06:50;;;;;;;16.83;11.97;;;2.90;99.90;;;;;;5010989;28;20037;-83
2022/01/18 04:09:16;;;;;;;18.20;12.27;;;2.90;99.90;;;;;;5010607;28;20026;-83
2022/01/18 04:11:42;;;;;;;17.67;13.00;;;2.90;99.90;;;;;;5010722;28;20030;-83
2022/01/18 04:14:07;;;;;;;18.37;13.07;;;2.80;99.90;;;;;;5010869;28;20101;-83
2022/01/18 04:16:42;;;;;;;15.83;12.07;;;2.80;99.90;;;;;;5010750;28;20077;-83
2022/01/18 04:25:49;;;;;;;19.30;12.77;;;2.80;99.90;;;;;;5010855;28;20105;-83
2022/01/18 04:27:41;;;;;;;17.57;12.80;;;2.70;99.90;;;;;;5010513;28;20176;-82
2022/01/18 04:30:07;;;;;;;17.93;12.23;;;2.70;99.90;;;;;;5010432;28;20058;-83
2022/01/18 04:32:33;;;;;;;18.23;12.97;;;2.70;99.90;;;;;;5010640;28;20026;-83
2022/01/18 04:34:59;;;;;;;18.63;13.17;;;2.70;99.90;;;;;;5010554;28;20521;-83
2022/01/18 04:37:24;;;;;;;19.30;12.30;;;2.70;99.90;;;;;;5010388;28;20030;-82
2022/01/18 04:39:50;;;;;;;19.27;13.17;;;2.70;99.90;;;;;;5010111;28;20030;-83
2022/01/18 04:42:34;;;;;;;17.50;12.53;;;2.60;99.90;;;;;;5010582;28;20455;-82
2022/01/18 04:50:28;;;;;;;21.13;13.93;;;2.60;99.90;;;;;;5014075;28;20045;-82
2022/01/18 04:52:53;;;;;;;19.00;14.23;;;2.50;99.90;;;;;;5013979;28;20463;-82
2022/01/18 04:55:19;;;;;;;21.20;13.47;;;2.50;99.90;;;;;;5013600;28;20375;-82
2022/01/18 04:57:52;;;;;;;23.37;14.73;;;2.50;99.90;;;;;;5014142;28;20076;-82
2022/01/18 05:00:18;;;;;;;21.27;14.90;;;2.50;99.90;;;;;;5013856;28;20030;-82
2022/01/18 05:02:44;;;;;;;21.37;14.13;;;2.50;99.90;;;;;;5013781;28;20080;-82
2022/01/18 05:05:11;;;;;;;20.53;14.17;;;2.50;99.90;;;;;;5013435;28;20474;-82
2022/01/18 05:07:38;;;;;;;21.03;14.20;;;2.50;99.90;;;;;;5013653;28;20026;-83
2022/01/18 05:10:04;;;;;;;21.40;13.73;;;2.50;99.90;;;;;;5014107;28;20423;-82
2022/01/18 05:12:44;;;;;;;20.57;14.60;;;2.40;99.90;;;;;;5017402;28;20064;-82
2022/01/18 05:15:34;;;;;;;22.43;14.93;;;2.30;99.90;;;;;;5019945;28;20375;-82
2022/01/18 05:23:06;;;;;;;24.70;14.45;;;2.10;99.90;;;;;;5032194;28;20044;-81
2022/01/18 05:25:33;;;;;;;26.07;15.47;;;2.10;99.90;;;;;;5024658;28;20017;-82
2022/01/18 05:28:00;;;;;;;22.43;15.10;;;2.00;99.90;;;;;;5029760;28;20132;-81
2022/01/18 05:30:30;;;;;;;21.60;14.70;;;1.90;99.90;;;;;;5031774;28;20024;-82
2022/01/18 05:32:57;;;;;;;26.10;16.80;;;1.90;99.90;;;;;;5030426;28;20021;-82
2022/01/18 05:35:23;;;;;;;29.50;17.97;;;1.80;99.90;;;;;;5030675;28;20071;-82
2022/01/18 05:37:50;;;;;;;23.73;15.77;;;1.70;99.90;;;;;;5031360;28;20039;-82
2022/01/18 05:40:17;;;;;;;26.27;16.23;;;1.60;99.90;;;;;;5031503;28;20064;-82
2022/01/18 05:42:43;;;;;;;22.80;14.90;;;1.60;99.90;;;;;;5030623;28;20075;-82
2022/01/18 05:45:10;;;;;;;24.67;16.00;;;1.50;99.90;;;;;;5030372;28;20433;-82
2022/01/18 05:47:37;;;;;;;27.17;16.43;;;1.40;99.90;;;;;;5030217;28;20025;-82
2022/01/18 05:50:04;;;;;;;26.93;15.60;;;1.30;99.90;;;;;;5030590;28;20474;-82
2022/01/18 05:52:29;;;;;;;29.23;16.13;;;1.20;99.90;;;;;;5031003;28;20029;-82
2022/01/18 05:54:55;;;;;;;28.13;15.87;;;1.20;99.90;;;;;;5029016;28;20018;-82
2022/01/18 05:57:21;;;;;;;26.93;16.00;;;1.20;99.90;;;;;;5030912;28;20025;-82
2022/01/18 05:59:47;;;;;;;25.63;15.87;;;1.10;99.90;;;;;;5032309;28;20021;-77
2022/01/18 06:02:28;;;;;;;27.37;16.17;;;1.10;99.90;;;;;;5034770;28;20025;-77
2022/01/18 06:07:38;;;;;;;29.83;16.77;;;1.00;99.90;;;;;;5034923;28;20092;-75
2022/01/18 06:10:04;;;;;;;26.67;16.70;;;0.90;99.90;;;;;;5033868;28;20049;-82
2022/01/18 06:12:30;;;;;;;27.73;16.53;;;0.90;99.90;;;;;;5033847;28;20030;-77
2022/01/18 06:14:58;;;;;;;28.23;17.90;;;0.90;99.90;;;;;;5034196;28;20064;-81
2022/01/18 06:17:24;;;;;;;26.53;17.07;;;0.80;99.90;;;;;;5035163;28;20034;-83
2022/01/18 06:19:50;;;;;;;28.90;17.27;;;0.70;99.90;;;;;;5036639;28;20508;-83
2022/01/18 06:22:15;;;;;;;28.93;17.40;;;0.70;99.90;;;;;;5032450;28;20470;-82
2022/01/18 06:24:41;;;;;;;31.00;18.23;;;0.70;99.90;;;;;;5031493;28;20033;-82
2022/01/18 06:27:08;;;;;;;30.30;17.57;;;0.60;99.90;;;;;;5031475;28;20441;-82
2022/01/18 06:29:34;;;;;;;34.97;18.83;;;0.60;99.90;;;;;;5031570;28;20022;-81
2022/01/18 06:31:59;;;;;;;33.47;19.47;;;0.50;99.90;;;;;;5030301;28;20036;-82
2022/01/18 06:34:25;;;;;;;34.20;19.60;;;0.50;99.90;;;;;;5030141;28;20505;-81
2022/01/18 06:36:51;;;;;;;38.27;20.57;;;0.50;99.90;;;;;;5031781;28;20037;-82
2022/01/18 06:39:17;;;;;;;32.63;19.13;;;0.50;99.90;;;;;;5031516;28;20442;-82
2022/01/18 06:41:44;;;;;;;29.40;18.00;;;0.50;99.90;;;;;;5030655;28;20025;-82
2022/01/18 06:44:09;;;;;;;29.23;17.60;;;0.50;99.90;;;;;;5027654;28;20441;-81
2022/01/18 06:46:35;;;;;;;28.97;17.73;;;0.40;99.90;;;;;;5030109;28;20033;-81
2022/01/18 06:49:00;;;;;;;29.10;17.87;;;0.50;99.90;;;;;;5029309;28;20108;-81
2022/01/18 06:51:26;;;;;;;31.50;18.73;;;0.50;99.90;;;;;;5028907;28;20061;-81
2022/01/18 06:53:52;;;;;;;27.47;17.97;;;0.40;99.90;;;;;;5028773;28;20060;-82
2022/01/18 06:56:19;;;;;;;30.23;17.73;;;0.40;99.90;;;;;;5028758;28;20037;-82
2022/01/18 06:58:45;;;;;;;28.07;17.27;;;0.30;99.90;;;;;;5026953;28;20550;-82
2022/01/18 07:01:13;;;;;;;30.77;17.13;;;0.30;99.90;;;;;;5029037;28;20112;-82
2022/01/18 07:03:39;;;;;;;33.37;18.67;;;0.20;99.90;;;;;;5028215;28;20065;-82
2022/01/18 07:06:05;;;;;;;29.73;17.93;;;0.20;99.90;;;;;;5028265;28;20026;-82
2022/01/18 07:08:31;;;;;;;34.70;19.60;;;0.20;99.90;;;;;;5028481;28;20037;-82
2022/01/18 07:10:57;;;;;;;35.17;20.43;;;0.10;99.90;;;;;;5027272;28;20021;-82
2022/01/18 07:13:23;;;;;;;32.87;21.17;;;0.10;99.90;;;;;;5027183;28;20033;-81
2022/01/18 07:15:49;;;;;;;35.63;20.83;;;0.10;99.90;;;;;;5026079;28;20033;-82
2022/01/18 07:18:15;;;;;;;32.97;18.83;;;0.10;99.90;;;;;;5027796;28;20512;-82
2022/01/18 07:20:41;;;;;;;32.07;18.87;;;0.10;99.90;;;;;;5027886;28;20033;-82
2022/01/18 07:23:11;;;;;;;31.57;18.93;;;0.10;99.90;;;;;;5031971;28;20099;-74
2022/01/18 07:25:42;;;;;;;35.13;20.40;;;0.10;99.90;;;;;;5033849;28;20374;-75
2022/01/18 07:28:09;;;;;;;34.97;20.40;;;0.20;99.90;;;;;;5029923;28;20533;-82
2022/01/18 07:30:35;;;;;;;33.17;19.40;;;0.20;99.90;;;;;;5027825;28;20033;-82
2022/01/18 07:33:00;;;;;;;30.23;19.50;;;0.20;99.90;;;;;;5027687;28;20068;-82
2022/01/18 07:35:27;;;;;;;34.97;20.80;;;0.30;99.90;;;;;;5027641;28;20061;-83
2022/01/18 07:37:53;;;;;;;32.40;19.97;;;0.40;99.90;;;;;;5030557;28;20021;-75
2022/01/18 07:40:18;;;;;;;34.53;19.80;;;0.40;99.90;;;;;;5032955;28;20037;-75
2022/01/18 07:42:44;;;;;;;34.57;19.80;;;0.50;99.90;;;;;;5033211;28;20033;-75
2022/01/18 07:45:10;;;;;;;39.30;21.93;;;0.60;99.90;;;;;;5032889;28;20029;-75
2022/01/18 07:47:36;;;;;;;37.20;21.03;;;0.60;99.90;;;;;;5033211;28;20100;-75
2022/01/18 07:50:02;;;;;;;40.07;21.70;;;0.70;99.90;;;;;;5033318;28;20175;-75
2022/01/18 07:52:29;;;;;;;35.27;21.80;;;0.80;99.90;;;;;;5030976;28;20053;-78
2022/01/18 07:54:55;;;;;;;36.27;20.63;;;0.80;99.90;;;;;;5026747;28;20025;-80
2022/01/18 07:57:21;;;;;;;28.93;18.17;;;0.90;99.90;;;;;;5026755;28;20402;-80
2022/01/18 07:59:46;;;;;;;33.20;19.83;;;0.90;99.90;;;;;;5031843;28;20112;-75
2022/01/18 08:02:12;;;;;;;34.83;20.47;;;1.00;99.90;;;;;;5031215;28;20121;-74
2022/01/18 08:04:38;;;;;;;41.03;20.07;;;1.00;99.90;;;;;;5032570;28;20025;-74
2022/01/18 08:07:03;;;;;;;32.30;18.77;;;1.10;99.90;;;;;;5032690;28;20034;-75
2022/01/18 08:09:29;;;;;;;29.47;18.80;;;1.10;99.90;;;;;;5033234;28;20045;-75
2022/01/18 08:11:55;;;;;;;35.17;19.73;;;1.10;99.90;;;;;;5033036;28;20036;-74
2022/01/18 08:14:20;;;;;;;31.93;19.60;;;1.20;99.90;;;;;;5033257;28;20087;-74
2022/01/18 08:19:12;;;;;;;32.30;19.13;;;1.30;99.90;;;;;;5032609;28;20040;-74
2022/01/18 08:21:38;;;;;;;28.70;18.27;;;1.40;99.90;;;;;;5032793;28;20412;-74
2022/01/18 08:24:04;;;;;;;31.33;18.50;;;1.50;99.90;;;;;;5036058;28;20049;-75
2022/01/18 08:26:29;;;;;;;28.13;18.77;;;1.60;99.90;;;;;;5036804;28;20034;-74
2022/01/18 08:28:55;;;;;;;29.23;18.47;;;1.60;99.90;;;;;;5036525;28;20021;-74
2022/01/18 08:31:20;;;;;;;30.40;18.23;;;1.70;99.90;;;;;;5036832;28;20033;-74
2022/01/18 08:33:46;;;;;;;30.57;18.33;;;1.80;99.90;;;;;;5036377;28;20025;-75
2022/01/18 08:36:11;;;;;;;30.80;18.00;;;1.90;99.90;;;;;;5036858;28;20040;-74
2022/01/18 08:38:39;;;;;;;32.27;17.03;;;2.00;99.90;;;;;;5036148;28;20038;-77
2022/01/18 08:41:06;;;;;;;24.40;15.77;;;2.00;99.90;;;;;;5036389;28;20108;-77
2022/01/18 08:43:33;;;;;;;23.10;15.53;;;2.10;99.90;;;;;;5035899;28;20382;-77
2022/01/18 08:45:59;;;;;;;25.67;15.73;;;2.10;99.90;;;;;;5036312;28;20025;-77
2022/01/18 08:48:25;;;;;;;24.00;15.43;;;2.20;99.90;;;;;;5036797;28;20025;-77
2022/01/18 08:50:53;;;;;;;28.37;16.07;;;2.30;99.90;;;;;;5036605;28;20139;-77
2022/01/18 08:53:19;;;;;;;23.67;14.67;;;2.30;99.90;;;;;;5036193;28;20032;-77
2022/01/18 08:55:45;;;;;;;23.63;14.33;;;2.40;99.90;;;;;;5036389;28;20037;-77
2022/01/18 08:58:11;;;;;;;23.40;14.37;;;2.40;99.90;;;;;;5036471;28;20104;-77
2022/01/18 09:00:37;;;;;;;23.57;14.40;;;2.50;99.90;;;;;;5034644;28;20029;-77
2022/01/18 09:03:03;;;;;;;20.20;14.87;;;2.50;99.90;;;;;;5035941;28;20090;-77
2022/01/18 09:05:29;;;;;;;23.40;13.50;;;2.60;99.90;;;;;;5035390;28;20446;-76
2022/01/18 09:08:01;;;;;;;21.53;13.13;;;2.70;99.90;;;;;;5036425;28;20104;-77
2022/01/18 09:10:27;;;;;;;20.23;13.07;;;2.70;99.90;;;;;;5036063;28;20447;-77
2022/01/18 09:12:52;;;;;;;18.57;12.27;;;2.70;99.90;;;;;;5035906;28;20032;-77
2022/01/18 09:15:18;;;;;;;23.50;14.00;;;2.80;99.90;;;;;;5035898;28;20193;-76
2022/01/18 09:17:44;;;;;;;20.93;13.73;;;2.90;99.90;;;;;;5035871;28;20033;-77
2022/01/18 09:20:12;;;;;;;27.13;18.33;;;2.90;99.90;;;;;;5035834;28;20033;-77
2022/01/18 09:22:39;;;;;;;24.00;16.17;;;3.20;99.90;;;;;;5035696;28;20025;-77
2022/01/18 09:25:08;;;;;;;24.47;15.60;;;3.50;99.90;;;;;;5035648;28;20032;-77
2022/01/18 09:27:35;;;;;;;23.97;15.53;;;3.70;99.90;;;;;;5034173;28;20037;-76
2022/01/18 09:30:00;;;;;;;23.13;14.67;;;3.90;99.90;;;;;;5034125;28;20075;-77
2022/01/18 09:32:28;;;;;;;22.23;15.10;;;3.90;99.90;;;;;;5035707;28;20138;-77
2022/01/18 09:34:54;;;;;;;21.07;14.40;;;4.00;99.90;;;;;;5034350;28;20072;-77
2022/01/18 09:37:20;;;;;;;24.00;16.17;;;3.90;99.90;;;;;;5035335;28;20061;-77
2022/01/18 09:39:45;;;;;;;39.37;26.20;;;4.00;99.90;;;;;;5035555;28;20130;-77
2022/01/18 09:42:12;;;;;;;26.87;18.23;;;3.90;99.90;;;;;;5035465;28;20025;-77
2022/01/18 09:44:39;;;;;;;21.50;14.20;;;3.90;99.90;;;;;;5035329;28;20162;-77
2022/01/18 09:50:31;;;;;;;22.40;15.20;;;4.30;99.90;;;;;;5035052;28;20075;-76
2022/01/18 09:52:58;;;;;;;26.10;12.73;;;4.40;99.90;;;;;;5035430;28;20026;-77
2022/01/18 09:55:26;;;;;;;15.60;10.17;;;4.60;99.90;;;;;;5035345;28;20028;-77
2022/01/18 09:57:53;;;;;;;18.83;11.50;;;4.60;99.90;;;;;;5033439;28;20029;-77
2022/01/18 10:00:22;;;;;;;14.37;9.17;;;4.70;99.90;;;;;;5033503;28;20531;-77
2022/01/18 10:02:48;;;;;;;12.17;7.80;;;4.60;99.90;;;;;;5035255;28;20033;-77
2022/01/18 10:05:22;;;;;;;13.43;7.83;;;4.80;99.90;;;;;;5034869;28;20025;-77
2022/01/18 10:08:11;;;;;;;10.50;6.90;;;4.70;99.90;;;;;;5034994;28;20021;-77
2022/01/18 10:10:42;;;;;;;13.47;7.73;;;4.60;99.90;;;;;;5034689;28;20032;-76
2022/01/18 10:13:21;;;;;;;32.00;12.47;;;4.60;99.90;;;;;;5034784;28;20071;-76
2022/01/18 10:16:08;;;;;;;29.63;10.83;;;4.60;99.90;;;;;;5034564;28;20422;-74
2022/01/18 10:18:50;;;;;;;20.57;9.40;;;4.50;99.90;;;;;;5033017;28;20029;-74
2022/01/18 10:21:35;;;;;;;10.90;5.37;;;4.50;99.90;;;;;;5034583;28;20022;-75
2022/01/18 10:24:25;;;;;;;;;;;4.30;99.90;;;;;;5034812;28;20057;-74
2022/01/18 10:26:53;;;;;;;13.73;7.00;;;4.20;99.90;;;;;;5034161;28;20003;-74
2022/01/18 10:29:25;;;;;;;14.07;7.47;;;4.40;99.90;;;;;;5032990;28;20034;-74
2022/01/18 10:37:17;;;;;;;12.02;8.05;;;4.90;99.90;;;;;;5032730;28;20033;-80
2022/01/18 10:39:50;;;;;;;16.27;7.87;;;4.90;99.90;;;;;;5027771;28;20041;-80
2022/01/18 10:42:53;;;;;;;15.63;8.30;;;4.90;99.90;;;;;;5026631;28;20025;-80
2022/01/18 10:45:31;;;;;;;11.97;6.87;;;4.90;99.90;;;;;;5026043;28;20109;-80
2022/01/18 10:48:04;;;;;;;11.60;7.17;;;4.80;99.90;;;;;;5028125;28;20030;-80
2022/01/18 10:50:35;;;;;;;14.10;7.60;;;4.70;99.90;;;;;;5028260;28;20431;-80
2022/01/18 10:53:30;;;;;;;12.67;7.03;;;4.60;99.90;;;;;;5009470;28;20598;-81
2022/01/18 10:56:17;;;;;;;11.87;6.60;;;4.70;99.90;;;;;;4995217;28;20133;-80
2022/01/18 10:58:48;;;;;;;12.87;6.87;;;4.80;99.90;;;;;;5008103;28;20040;-80
2022/01/18 11:01:18;;;;;;;10.80;5.30;;;4.80;99.90;;;;;;5015199;28;20036;-80
2022/01/18 11:04:10;;;;;;;9.17;6.20;;;5.00;99.90;;;;;;5027974;28;20021;-79
2022/01/18 11:06:37;;;;;;;10.90;5.40;;;5.10;99.90;;;;;;5027478;28;20053;-80
2022/01/18 11:09:14;;;;;;;7.67;4.70;;;4.90;99.90;;;;;;5027414;28;20120;-80
2022/01/18 11:11:45;;;;;;;11.57;5.20;;;4.90;99.90;;;;;;5027565;28;20048;-81
2022/01/18 11:14:13;;;;;;;10.57;4.83;;;5.00;99.90;;;;;;5027300;28;20379;-80
2022/01/18 11:16:42;;;;;;;8.57;5.10;;;5.00;99.90;;;;;;5027411;28;20029;-80
2022/01/18 11:19:18;;;;;;;12.07;6.13;;;5.10;99.90;;;;;;5027140;28;20048;-80
2022/01/18 11:21:46;;;;;;;8.67;5.03;;;5.40;99.90;;;;;;5027048;28;20486;-80
2022/01/18 11:24:16;;;;;;;9.67;5.20;;;5.70;99.90;;;;;;5033085;28;20078;-77
2022/01/18 11:26:43;;;;;;;11.13;5.60;;;5.80;99.90;;;;;;5033470;28;20078;-77
2022/01/18 11:29:10;;;;;;;10.30;5.80;;;5.70;99.90;;;;;;5033217;28;20071;-77
2022/01/18 11:31:37;;;;;;;11.50;4.57;;;5.80;99.90;;;;;;5033193;28;20044;-77
2022/01/18 11:34:05;;;;;;;9.67;4.33;;;5.90;99.90;;;;;;5032955;28;20437;-77
2022/01/18 11:36:41;;;;;;;9.03;4.97;;;6.00;99.90;;;;;;5033210;28;20022;-77
2022/01/18 11:39:08;;;;;;;11.27;6.27;;;6.00;99.90;;;;;;5032067;28;20360;-77
2022/01/18 11:41:35;;;;;;;9.77;5.23;;;5.80;99.90;;;;;;5032935;28;20096;-76
2022/01/18 11:44:26;;;;;;;10.43;5.97;;;5.50;99.90;;;;;;5031693;28;20084;-76
2022/01/18 11:46:55;;;;;;;11.77;5.13;;;5.60;99.90;;;;;;5033330;28;20029;-77
2022/01/18 11:49:27;;;;;;;11.23;4.80;;;5.70;99.90;;;;;;5033332;28;20021;-77
2022/01/18 11:52:03;;;;;;;11.43;5.70;;;5.70;99.90;;;;;;5033156;28;20067;-77
2022/01/18 11:54:56;;;;;;;13.00;5.30;;;5.60;99.90;;;;;;5031429;28;20455;-70
2022/01/18 11:57:22;;;;;;;12.90;5.20;;;5.80;99.90;;;;;;5006752;28;20053;-80
2022/01/18 12:00:08;;;;;;;10.80;6.13;;;6.10;99.90;;;;;;5010458;28;20119;-81
2022/01/18 12:02:39;;;;;;;11.70;5.27;;;6.10;99.90;;;;;;5006561;28;20164;-81
2022/01/18 12:05:14;;;;;;;10.53;4.57;;;6.20;99.90;;;;;;5006461;28;20025;-81
2022/01/18 12:07:41;;;;;;;8.15;3.83;;;6.30;99.90;;;;;;5006100;28;20030;-81
2022/01/18 12:10:34;;;;;;;9.00;4.67;;;6.20;99.90;;;;;;5007238;28;20061;-81
2022/01/18 12:13:01;;;;;;;12.07;5.40;;;6.10;99.90;;;;;;5007397;28;20125;-80
2022/01/18 12:15:32;;;;;;;15.20;5.20;;;6.20;99.90;;;;;;5006832;28;20097;-80
2022/01/18 12:18:22;;;;;;;9.50;4.63;;;6.10;99.90;;;;;;5038213;28;20434;-81
2022/01/18 12:20:49;;;;;;;12.23;5.70;;;6.20;99.90;;;;;;5026887;28;20116;-81
2022/01/18 12:23:20;;;;;;;14.93;5.10;;;6.10;99.90;;;;;;5026652;28;20025;-81
2022/01/18 12:31:52;;;;;;;12.10;5.67;;;6.20;99.90;;;;;;5013172;28;20049;-75
2022/01/18 12:34:40;;;;;;;12.83;5.63;;;6.00;99.90;;;;;;5012678;28;20121;-75
2022/01/18 12:37:17;;;;;;;11.53;5.37;;;5.80;99.90;;;;;;5012718;28;20054;-75
2022/01/18 12:39:55;;;;;;;12.27;6.13;;;5.60;99.90;;;;;;5012814;28;20018;-77
2022/01/18 12:45:19;;;;;;;12.60;4.93;;;5.50;99.90;;;;;;5012929;28;20041;-76
2022/01/18 12:47:58;;;;;;;11.17;5.67;;;5.70;99.90;;;;;;5012665;28;20026;-76
2022/01/18 12:50:48;;;;;;;10.60;4.80;;;5.80;99.90;;;;;;5027639;28;20022;-76
2022/01/18 12:53:17;;;;;;;11.33;5.07;;;5.90;99.90;;;;;;5012579;28;20018;-76
2022/01/18 12:55:47;;;;;;;10.77;4.63;;;6.00;99.90;;;;;;5012586;28;20034;-76
2022/01/18 12:58:16;;;;;;;8.80;4.17;;;6.00;99.90;;;;;;5012545;28;20105;-76
2022/01/18 13:00:44;;;;;;;10.67;4.50;;;5.90;99.90;;;;;;5012552;28;20057;-76
2022/01/18 13:03:15;;;;;;;9.57;4.23;;;5.70;99.90;;;;;;5012942;28;20026;-76
2022/01/18 13:05:43;;;;;;;13.63;4.73;;;5.70;99.90;;;;;;5012235;28;20382;-76
2022/01/18 13:08:11;;;;;;;6.47;3.90;;;5.60;99.90;;;;;;5012701;28;20022;-76
2022/01/18 13:10:42;;;;;;;19.70;8.63;;;5.60;99.90;;;;;;5014708;28;20018;-76
2022/01/18 13:13:09;;;;;;;48.10;22.70;;;5.60;99.90;;;;;;5016010;28;20459;-76
2022/01/18 13:22:54;;;;;;;13.10;5.80;;;5.40;99.90;;;;;;5015892;28;20018;-76
2022/01/18 13:27:14;;;;;;;51.20;19.27;;;5.10;99.90;;;;;;5029829;28;20144;-82
2022/01/18 13:29:41;;;;;;;12.40;4.97;;;5.20;99.90;;;;;;5028939;28;20064;-81
2022/01/18 13:32:18;;;;;;;17.57;8.57;;;5.30;99.90;;;;;;5029266;28;20048;-81
2022/01/18 13:34:46;;;;;;;15.37;4.60;;;5.20;99.90;;;;;;5029184;28;20057;-81
2022/01/18 13:37:14;;;;;;;17.27;6.63;;;5.30;99.90;;;;;;5027429;28;20044;-81
2022/01/18 13:39:59;;;;;;;17.47;8.80;;;5.40;99.90;;;;;;5027046;28;20040;-81
2022/01/18 13:42:33;;;;;;;12.02;3.70;;;5.20;99.90;;;;;;5015273;28;20076;-81
2022/01/18 13:45:11;;;;;;;26.00;8.33;;;5.40;99.90;;;;;;5014944;28;20113;-81
2022/01/18 13:47:40;;;;;;;16.90;5.87;;;5.30;99.90;;;;;;5027628;28;20499;-81
2022/01/18 13:50:26;;;;;;;19.67;7.60;;;5.40;99.90;;;;;;5026377;28;20498;-81
2022/01/18 13:52:58;;;;;;;54.22;24.50;;;5.20;99.90;;;;;;5028839;28;20018;-81
2022/01/18 13:55:28;;;;;;;13.67;4.90;;;5.10;99.90;;;;;;5029140;28;20041;-81
2022/01/18 13:57:55;;;;;;;15.80;5.57;;;5.30;99.90;;;;;;5015661;28;20129;-81
2022/01/18 14:00:24;;;;;;;31.30;13.83;;;5.20;99.90;;;;;;5025969;28;20029;-81
2022/01/18 14:02:50;;;;;;;55.90;21.70;;;5.30;99.90;;;;;;5029156;28;20087;-81
2022/01/18 14:05:18;;;;;;;25.30;9.63;;;5.20;99.90;;;;;;5028460;28;20038;-81
2022/01/18 14:07:44;;;;;;;30.67;12.50;;;5.20;99.90;;;;;;5027031;28;20030;-81
2022/01/18 14:10:10;;;;;;;26.07;11.63;;;5.10;99.90;;;;;;5027843;28;20032;-81